createdAt,value
2023-02-24T00:01:18.771Z,20.57
2023-02-24T05:00:41.499Z,32.10
2023-02-24T05:04:44.520Z,30.63
2023-02-24T05:08:47.347Z,30.03
2023-02-24T05:12:50.429Z,29.50
2023-02-24T05:17:00.096Z,30.60
2023-02-24T05:21:24.379Z,31.50
2023-02-24T05:25:27.347Z,32.37
2023-02-24T05:29:32.072Z,29.77
2023-02-24T05:33:37.660Z,31.20
2023-02-24T05:37:42.443Z,31.13
2023-02-24T05:41:54.562Z,33.07
2023-02-24T05:45:57.428Z,32.90
2023-02-24T05:50:09.147Z,33.60
2023-02-24T05:54:14.810Z,31.77
2023-02-24T05:58:20.467Z,32.03
2023-02-24T06:02:27.685Z,31.40
2023-02-24T06:06:35.002Z,32.70
2023-02-24T06:10:37.644Z,34.73
2023-02-24T06:14:42.283Z,33.27
2023-02-24T06:18:45.439Z,32.70
2023-02-24T06:22:54.164Z,33.60
2023-02-24T06:27:02.455Z,33.20
2023-02-24T06:31:06.781Z,33.00
2023-02-24T06:35:10.414Z,34.60
2023-02-24T06:39:14.805Z,34.93
2023-02-24T06:43:17.519Z,35.17
2023-02-24T06:47:22.643Z,34.90
2023-02-24T06:51:30.068Z,36.73
2023-02-24T06:55:35.549Z,34.00
2023-02-24T06:59:38.333Z,34.27
2023-02-24T07:03:47.241Z,36.07
2023-02-24T07:07:51.224Z,35.90
2023-02-24T07:12:01.523Z,34.63
2023-02-24T07:16:07.443Z,32.47
2023-02-24T07:20:25.110Z,32.40
2023-02-24T07:24:32.985Z,34.47
2023-02-24T07:28:39.913Z,36.73
2023-02-24T07:32:42.602Z,35.87
2023-02-24T07:36:50.129Z,35.90
2023-02-24T07:40:52.787Z,37.70
2023-02-24T07:44:57.120Z,34.17
2023-02-24T07:49:00.146Z,36.50
2023-02-24T07:53:05.652Z,34.00
2023-02-24T07:57:13.553Z,39.83
2023-02-24T08:01:22.980Z,37.53
2023-02-24T08:05:26.540Z,37.77
2023-02-24T08:09:53.604Z,34.70
2023-02-24T08:13:59.175Z,34.53
2023-02-24T08:18:03.416Z,31.53
2023-02-24T08:22:19.370Z,33.77
2023-02-24T08:26:30.680Z,31.40
2023-02-24T08:30:39.427Z,32.13
2023-02-24T08:34:44.309Z,33.30
2023-02-24T08:38:51.945Z,31.43
2023-02-24T08:42:54.695Z,33.83
2023-02-24T08:47:00.621Z,31.40
2023-02-24T08:51:15.089Z,36.90
2023-02-24T08:55:23.109Z,31.93
2023-02-24T08:59:37.669Z,30.73
2023-02-24T09:03:46.056Z,32.30
2023-02-24T09:07:54.710Z,32.30
2023-02-24T09:11:59.516Z,29.97
2023-02-24T09:16:02.639Z,32.93
2023-02-24T09:20:49.039Z,30.67
2023-02-24T09:25:13.045Z,29.90
2023-02-24T09:29:30.138Z,30.30
2023-02-24T09:33:38.724Z,30.50
2023-02-24T09:37:41.612Z,32.87
2023-02-24T09:41:57.569Z,29.30
2023-02-24T09:46:14.449Z,28.63
2023-02-24T09:50:59.099Z,30.07
2023-02-24T09:55:11.386Z,29.03
2023-02-24T09:59:26.082Z,21.47
2023-02-24T10:03:43.584Z,27.73
2023-02-24T10:07:47.543Z,27.40
2023-02-24T10:11:55.215Z,25.30
2023-02-24T10:16:06.882Z,28.20
2023-02-24T10:20:28.591Z,25.23
2023-02-24T10:24:35.839Z,25.87
2023-02-24T10:28:46.029Z,26.80
2023-02-24T10:32:58.211Z,22.27
2023-02-24T10:37:07.767Z,21.43
2023-02-24T10:41:11.544Z,20.87
2023-02-24T10:45:18.281Z,19.07
2023-02-24T10:49:24.788Z,19.27
2023-02-24T10:53:34.747Z,18.50
2023-02-24T10:57:58.114Z,21.73
2023-02-24T11:02:06.756Z,17.67
2023-02-24T11:06:42.285Z,17.00
2023-02-24T11:10:58.670Z,16.87
2023-02-24T11:15:21.991Z,16.37
2023-02-24T11:19:29.745Z,15.20
2023-02-24T11:23:36.067Z,15.80
2023-02-24T11:27:42.042Z,16.00
2023-02-24T11:31:56.685Z,14.37
2023-02-24T11:36:05.851Z,16.20
2023-02-24T11:40:16.254Z,12.30
2023-02-24T11:44:23.349Z,16.67
2023-02-24T11:48:29.450Z,16.47
2023-02-24T11:52:34.644Z,15.73
2023-02-24T11:56:44.078Z,15.97
2023-02-24T12:00:53.800Z,16.17
2023-02-24T12:05:01.091Z,14.73
2023-02-24T12:09:10.281Z,15.20
2023-02-24T12:13:19.581Z,17.33
2023-02-24T12:17:29.336Z,12.20
2023-02-24T12:21:35.833Z,13.00
2023-02-24T12:25:58.897Z,14.00
2023-02-24T12:30:34.007Z,13.60
2023-02-24T12:34:43.412Z,24.50
2023-02-24T12:38:53.864Z,16.60
2023-02-24T12:43:04.345Z,14.30
2023-02-24T12:47:12.994Z,15.07
2023-02-24T12:51:21.799Z,17.27
2023-02-24T12:55:30.228Z,16.80
2023-02-24T12:59:38.007Z,15.60
2023-02-24T13:04:05.341Z,13.23
2023-02-24T13:08:19.873Z,14.13
2023-02-24T13:12:28.120Z,14.80
2023-02-24T13:16:32.622Z,13.10
2023-02-24T13:20:38.047Z,14.40
2023-02-24T13:24:43.282Z,13.03
2023-02-24T13:28:45.944Z,14.13
2023-02-24T13:33:03.545Z,14.50
2023-02-24T13:37:10.137Z,11.60
2023-02-24T13:41:37.885Z,14.90
2023-02-24T13:45:42.141Z,14.83
2023-02-24T13:49:52.079Z,15.97
2023-02-24T13:54:09.051Z,13.47
2023-02-24T13:58:28.184Z,17.93
2023-02-24T14:02:32.013Z,13.67
2023-02-24T14:06:35.197Z,17.17
2023-02-24T14:10:45.359Z,14.53
2023-02-24T14:14:48.927Z,14.53
2023-02-24T14:18:56.088Z,14.10
2023-02-24T14:23:00.222Z,13.20
2023-02-24T14:27:05.790Z,14.83
2023-02-24T14:31:10.360Z,15.43
2023-02-24T14:35:20.823Z,17.30
2023-02-24T14:39:24.762Z,16.17
2023-02-24T14:43:29.793Z,18.20
2023-02-24T14:47:34.963Z,13.40
2023-02-24T14:51:38.018Z,14.37
2023-02-24T14:55:43.206Z,15.20
2023-02-24T14:59:50.295Z,13.77
2023-02-24T15:03:55.742Z,13.13
2023-02-24T15:07:59.472Z,14.03
2023-02-24T15:12:12.477Z,14.97
2023-02-24T15:16:21.742Z,14.73
2023-02-24T15:20:33.500Z,14.47
2023-02-24T15:24:36.364Z,16.43
2023-02-24T15:28:39.586Z,16.07
2023-02-24T15:32:44.029Z,15.67
2023-02-24T15:36:47.472Z,13.50
2023-02-24T15:40:52.971Z,16.47
2023-02-24T15:44:57.169Z,15.50
2023-02-24T15:49:05.377Z,14.20
2023-02-24T15:53:12.798Z,24.17
2023-02-24T15:57:17.471Z,16.93
2023-02-24T16:01:20.407Z,21.33
2023-02-24T16:05:24.880Z,18.80
2023-02-24T16:09:33.486Z,16.80
2023-02-24T16:13:36.233Z,16.47
2023-02-24T16:17:41.036Z,15.77
2023-02-24T16:21:46.359Z,16.73
2023-02-24T16:25:51.203Z,14.27
2023-02-24T16:29:54.461Z,16.70
2023-02-24T16:33:58.439Z,17.83
2023-02-24T16:38:02.609Z,16.67
2023-02-24T16:42:06.230Z,15.10
2023-02-24T16:46:15.636Z,15.43
2023-02-24T16:50:21.469Z,15.27
2023-02-24T16:54:29.327Z,13.97
2023-02-24T16:58:32.400Z,13.93
2023-02-24T17:02:35.236Z,14.03
2023-02-24T17:06:38.278Z,17.03
2023-02-24T17:10:43.595Z,15.03
2023-02-24T17:14:46.396Z,14.00
2023-02-24T17:18:49.189Z,14.03
2023-02-24T17:22:51.985Z,13.53
2023-02-24T17:26:58.687Z,12.63
2023-02-24T17:31:01.657Z,15.53
2023-02-24T17:35:04.862Z,15.47
2023-02-24T17:39:07.566Z,12.67
2023-02-24T17:43:11.960Z,15.73
2023-02-24T17:47:14.743Z,16.07
2023-02-24T17:51:19.396Z,14.80
2023-02-24T17:55:22.426Z,14.53
2023-02-24T17:59:26.525Z,16.10
2023-02-24T18:03:29.753Z,15.23
2023-02-24T18:07:32.532Z,14.47
2023-02-24T18:11:37.269Z,15.27
2023-02-24T18:15:41.377Z,13.97
2023-02-24T18:19:44.071Z,14.97
2023-02-24T18:23:49.121Z,14.80
2023-02-24T18:27:52.031Z,13.93
2023-02-24T18:31:56.325Z,11.47
2023-02-24T18:35:59.728Z,13.73
2023-02-24T18:40:03.984Z,14.13
2023-02-24T18:44:06.830Z,16.10
2023-02-24T18:48:12.518Z,14.57
2023-02-24T18:52:15.279Z,16.30
2023-02-24T18:56:21.272Z,12.80
2023-02-24T19:00:27.193Z,16.43
2023-02-24T19:04:31.836Z,15.32
2023-02-24T19:08:34.509Z,12.60
2023-02-24T19:12:40.152Z,12.93
2023-02-24T19:16:45.360Z,10.90
2023-02-24T19:20:49.450Z,10.50
2023-02-24T19:24:52.229Z,8.77
2023-02-24T19:28:55.385Z,9.10
2023-02-24T19:32:58.759Z,7.70
2023-02-24T19:37:03.075Z,6.37
2023-02-24T19:41:06.145Z,7.57
2023-02-24T19:45:13.354Z,5.67
2023-02-24T19:49:16.036Z,5.20
2023-02-24T19:53:20.272Z,5.83
2023-02-24T19:57:22.980Z,4.67
2023-02-24T20:01:27.922Z,4.97
2023-02-24T20:05:30.611Z,4.83
2023-02-24T20:09:34.752Z,4.40
2023-02-24T20:13:37.776Z,4.30
2023-02-24T20:17:40.495Z,6.17
2023-02-24T20:21:43.395Z,4.20
2023-02-24T20:25:52.692Z,6.03
2023-02-24T20:29:57.065Z,4.03
2023-02-24T20:34:00.111Z,4.50
2023-02-24T20:38:02.852Z,2.90
2023-02-24T20:42:07.226Z,2.70
2023-02-24T20:46:14.063Z,4.07
2023-02-24T20:50:21.690Z,2.70
2023-02-24T20:54:26.464Z,3.00
2023-02-24T20:58:31.059Z,3.80
2023-02-24T21:02:34.038Z,3.87
2023-02-24T21:06:37.770Z,2.90
2023-02-24T21:10:44.863Z,3.07
2023-02-24T21:14:49.155Z,2.50
2023-02-24T21:18:53.208Z,2.40
2023-02-24T21:22:56.028Z,2.83
2023-02-24T21:26:58.791Z,3.43
2023-02-24T21:31:08.068Z,2.60
2023-02-24T21:35:10.913Z,2.40
2023-02-24T21:39:14.831Z,2.43
2023-02-24T21:43:17.929Z,3.33
2023-02-24T21:47:22.090Z,3.20
2023-02-24T21:51:25.840Z,2.83
2023-02-24T21:55:30.541Z,3.17
2023-02-24T21:59:33.515Z,2.93
2023-02-24T22:03:37.677Z,2.50
2023-02-24T22:07:40.569Z,2.60
2023-02-24T22:11:43.498Z,3.03
2023-02-24T22:15:46.215Z,2.53
2023-02-24T22:19:50.282Z,2.50
2023-02-24T22:23:54.647Z,2.70
2023-02-24T22:27:57.350Z,3.33
2023-02-24T22:32:00.234Z,3.10
2023-02-24T22:36:07.810Z,3.00
2023-02-24T22:40:11.528Z,3.83
2023-02-24T22:44:14.380Z,4.07
2023-02-24T22:48:17.159Z,3.50
2023-02-24T22:52:21.514Z,3.13
2023-02-24T22:56:26.591Z,3.43
2023-02-24T23:00:29.967Z,3.63
2023-02-24T23:04:34.276Z,4.20
2023-02-24T23:08:39.555Z,5.07
2023-02-24T23:12:42.537Z,4.87
2023-02-24T23:16:48.331Z,5.50
2023-02-24T23:21:00.769Z,5.03
2023-02-24T23:25:05.169Z,5.23
2023-02-24T23:29:10.211Z,5.67
2023-02-24T23:33:13.345Z,6.17
2023-02-24T23:37:16.697Z,6.87
2023-02-24T23:41:20.852Z,6.30
2023-02-24T23:45:24.879Z,7.00
2023-02-24T23:49:36.266Z,6.70
2023-02-24T23:53:46.610Z,6.60
2023-02-24T23:57:50.892Z,6.63
